Time;durP1;ratioP1;P1;durP2;ratioP2;P2;SDS_P1;SDS_P2;PMS_P1;PMS_P2;Temp;Humidity;BMP_temperature;BMP_pressure;BME280_temperature;BME280_humidity;BME280_pressure;Samples;Min_cycle;Max_cycle;Signal;HPM_P1;HPM_P2
2022/12/27 00:02:17;;;;;;;12.68;1.35;;;;;;;0.33;54.80;101574.75;4906901;28;20765;-72
2022/12/27 00:04:42;;;;;;;8.40;0.60;;;;;;;0.30;55.37;101561.88;4892987;29;20032;-72
2022/12/27 00:07:08;;;;;;;2.60;0.28;;;;;;;0.44;55.08;101562.91;4894870;28;20062;-72
2022/12/27 00:09:33;;;;;;;6.28;0.55;;;;;;;0.30;55.57;101568.69;4907004;29;20404;-72
2022/12/27 00:11:59;;;;;;;1.38;0.32;;;;;;;-0.20;56.72;101562.81;4898099;28;20044;-71
2022/12/27 00:14:25;;;;;;;6.93;0.80;;;;;;;0.19;55.90;101574.56;4912452;29;20256;-72
2022/12/27 00:16:51;;;;;;;3.08;0.57;;;;;;;-0.00;56.61;101575.13;4909335;28;20050;-73
2022/12/27 00:19:16;;;;;;;6.30;0.50;;;;;;;0.39;55.40;101563.66;4907888;29;20036;-74
2022/12/27 00:21:42;;;;;;;3.50;0.32;;;;;;;0.32;55.50;101574.72;4907586;28;20477;-72
2022/12/27 00:24:09;;;;;;;1.80;0.20;;;;;;;0.36;55.74;101574.78;4911865;29;20063;-72
2022/12/27 00:26:35;;;;;;;5.65;0.65;;;;;;;0.51;55.39;101578.41;4908469;28;20694;-72
2022/12/27 00:29:01;;;;;;;0.82;0.20;;;;;;;0.64;54.86;101570.00;4911530;29;20046;-72
2022/12/27 00:31:29;;;;;;;7.35;1.65;;;;;;;0.30;55.70;101577.28;4910766;28;20067;-71
2022/12/27 00:33:57;;;;;;;1.70;0.73;;;;;;;0.55;55.09;101586.19;4910000;29;20023;-73
2022/12/27 00:36:25;;;;;;;7.55;0.77;;;;;;;0.25;56.42;101591.75;4914922;29;20039;-72
2022/12/27 00:38:52;;;;;;;3.78;0.80;;;;;;;0.30;56.33;101597.88;4915328;29;20056;-75
2022/12/27 00:41:19;;;;;;;3.80;0.40;;;;;;;0.82;54.77;101595.97;4913273;29;20063;-73
2022/12/27 00:43:45;;;;;;;14.43;0.50;;;;;;;0.14;55.95;101591.59;4911900;28;20337;-75
2022/12/27 00:46:11;;;;;;;3.55;0.60;;;;;;;0.30;56.38;101599.53;4915135;29;20039;-69
2022/12/27 00:48:37;;;;;;;3.70;0.38;;;;;;;0.53;55.83;101600.75;4909837;28;20337;-69
2022/12/27 00:51:05;;;;;;;5.60;0.40;;;;;;;0.58;56.15;101600.78;4912585;29;20032;-70
2022/12/27 00:53:32;;;;;;;3.00;0.43;;;;;;;0.68;55.24;101607.81;4908883;28;20047;-72
2022/12/27 00:55:58;;;;;;;3.88;0.50;;;;;;;0.46;56.24;101611.78;4912986;29;20027;-71
2022/12/27 00:58:24;;;;;;;6.07;0.95;;;;;;;0.58;55.86;101611.94;4911934;28;20067;-70
2022/12/27 01:00:50;;;;;;;2.33;0.40;;;;;;;1.02;54.83;101609.06;4928402;28;20437;-76
2022/12/27 01:03:17;;;;;;;3.42;0.30;;;;;;;1.00;54.25;101605.59;4914516;28;21099;-73
2022/12/27 01:05:43;;;;;;;7.65;0.57;;;;;;;1.09;54.50;101600.56;4913634;29;20449;-75
2022/12/27 01:08:09;;;;;;;7.20;0.50;;;;;;;1.25;53.98;101604.16;4915722;28;20138;-74
2022/12/27 01:10:34;;;;;;;2.53;0.40;;;;;;;1.65;52.82;101621.75;4914127;29;20206;-74
2022/12/27 01:13:02;;;;;;;8.48;0.60;;;;;;;1.31;53.63;101636.84;4913958;28;20069;-73
2022/12/27 01:15:27;;;;;;;1.10;0.50;;;;;;;1.78;52.17;101631.34;4916267;29;20666;-74
2022/12/27 01:17:53;;;;;;;4.50;0.30;;;;;;;1.60;53.05;101637.19;4916137;28;20044;-75
2022/12/27 01:20:19;;;;;;;7.57;0.60;;;;;;;1.91;52.30;101625.44;4917321;29;20051;-74
2022/12/27 01:22:44;;;;;;;5.15;0.60;;;;;;;1.82;51.99;101617.63;4913515;28;20044;-74
2022/12/27 01:25:10;;;;;;;4.40;0.30;;;;;;;1.00;54.34;101615.06;4910586;29;20051;-75
2022/12/27 01:27:35;;;;;;;14.48;0.95;;;;;;;0.57;55.25;101619.63;4913926;28;20055;-74
2022/12/27 01:30:02;;;;;;;3.90;0.50;;;;;;;0.57;55.49;101609.34;4917176;29;20050;-74
2022/12/27 01:32:28;;;;;;;4.57;1.15;;;;;;;0.76;54.66;101618.19;4905113;28;20050;-76
2022/12/27 01:34:53;;;;;;;8.05;0.93;;;;;;;0.60;55.65;101619.69;4894574;29;20031;-74
2022/12/27 01:37:19;;;;;;;2.08;0.30;;;;;;;0.96;54.16;101619.28;4903799;28;20825;-74
2022/12/27 01:39:44;;;;;;;4.75;0.28;;;;;;;0.21;56.68;101634.59;4915238;29;20047;-75
2022/12/27 01:45:01;;;;;;;6.30;1.00;;;;;;;0.42;57.65;101651.16;4921165;29;20229;-74
2022/12/27 01:47:57;;;;;;;5.80;0.52;;;;;;;0.73;56.91;101649.03;4909463;28;20132;-70
2022/12/27 01:50:39;;;;;;;3.53;0.70;;;;;;;0.40;58.33;101664.00;4908662;29;20063;-70
2022/12/27 01:53:24;;;;;;;6.13;0.57;;;;;;;0.59;57.75;101665.16;4894363;28;20098;-69
2022/12/27 01:56:01;;;;;;;11.93;1.23;;;;;;;0.35;58.31;101664.78;4889649;29;20111;-70
2022/12/27 01:58:31;;;;;;;4.85;0.90;;;;;;;0.21;58.89;101662.88;4905943;28;20482;-69
2022/12/27 02:00:57;;;;;;;3.30;0.47;;;;;;;0.74;57.63;101658.47;4909600;29;20047;-70
2022/12/27 02:03:44;;;;;;;6.63;0.60;;;;;;;0.01;59.10;101648.81;4909360;28;20118;-73
2022/12/27 02:06:12;;;;;;;9.30;0.60;;;;;;;0.32;58.27;101644.16;4911230;29;20038;-73
2022/12/27 02:08:53;;;;;;;4.70;0.40;;;;;;;0.50;58.05;101646.97;4908941;28;20043;-73
2022/12/27 02:14:14;;;;;;;5.47;0.47;;;;;;;1.15;56.82;101652.97;4893702;29;20040;-71
2022/12/27 02:16:40;;;;;;;7.07;0.73;;;;;;;0.65;58.15;101654.91;4889102;28;20043;-75
2022/12/27 02:19:12;;;;;;;2.78;0.52;;;;;;;0.79;57.88;101652.56;4894170;29;20032;-75
2022/12/27 02:22:15;;;;;;;3.10;0.57;;;;;;;0.39;58.33;101645.97;4896412;29;20115;-77
2022/12/27 02:25:07;;;;;;;4.53;0.80;;;;;;;0.74;57.71;101669.63;4912784;29;20035;-78
2022/12/27 02:28:14;;;;;;;11.38;0.68;;;;;;;0.40;58.67;101669.13;4909415;28;20055;-77
2022/12/27 02:30:43;;;;;;;7.22;0.63;;;;;;;0.48;58.88;101661.56;4899648;29;20051;-78
2022/12/27 02:33:19;;;;;;;12.65;1.33;;;;;;;0.55;58.59;101652.22;4914605;28;20094;-77
2022/12/27 02:35:54;;;;;;;9.43;1.13;;;;;;;0.65;58.57;101654.91;4914106;29;20036;-73
2022/12/27 02:38:49;;;;;;;1.70;0.20;;;;;;;0.89;58.05;101648.38;4907874;28;20345;-69
2022/12/27 02:55:29;;;;;;;2.88;0.32;;;;;;;1.02;58.04;101657.97;4907391;29;20162;-69
2022/12/27 02:58:26;;;;;;;5.78;0.55;;;;;;;1.00;57.94;101661.38;4898616;28;20056;-69
2022/12/27 03:04:30;;;;;;;7.57;0.45;;;;;;;0.69;58.62;101658.41;4905529;29;20125;-70
2022/12/27 03:07:17;;;;;;;5.88;0.60;;;;;;;0.43;59.54;101663.16;4907017;28;20054;-69
2022/12/27 03:15:54;;;;;;;5.90;0.30;;;;;;;0.47;59.27;101645.22;4905779;29;20094;-69
2022/12/27 03:18:36;;;;;;;5.65;0.55;;;;;;;0.73;58.63;101651.59;4892448;28;20595;-72
2022/12/27 03:26:51;;;;;;;2.95;0.20;;;;;;;0.93;57.77;101665.59;4889364;28;20163;-72
2022/12/27 03:35:06;;;;;;;4.78;0.63;;;;;;;0.62;57.84;101667.75;4888817;29;20043;-73
2022/12/27 03:43:09;;;;;;;2.95;0.38;;;;;;;0.69;58.65;101664.41;4908579;29;20592;-72
2022/12/27 03:43:32;;;;;;;2.25;0.43;;;;;;;1.07;57.48;101661.47;4904942;28;20043;-73
2022/12/27 03:46:33;;;;;;;2.17;0.68;;;;;;;0.61;58.98;101668.59;4907304;29;20443;-76
2022/12/27 03:49:04;;;;;;;4.57;0.60;;;;;;;0.45;59.32;101674.34;4907439;29;20088;-74
2022/12/27 03:51:37;;;;;;;1.13;0.10;;;;;;;0.31;59.77;101683.56;4908722;28;20818;-78
2022/12/27 03:54:24;;;;;;;8.70;0.90;;;;;;;0.20;60.16;101676.53;4926215;29;20042;-81
2022/12/27 03:56:52;;;;;;;7.50;0.57;;;;;;;0.65;58.74;101682.34;4929080;28;20540;-80
2022/12/27 03:59:18;;;;;;;6.32;0.57;;;;;;;0.49;59.34;101681.28;4930899;29;20527;-81
2022/12/27 04:01:43;;;;;;;2.80;0.68;;;;;;;0.63;58.89;101678.91;4917120;28;20099;-83
2022/12/27 04:04:09;;;;;;;9.55;0.60;;;;;;;0.91;58.52;101682.72;4896380;29;20114;-76
2022/12/27 04:06:34;;;;;;;2.20;0.68;;;;;;;0.73;58.77;101701.34;4906329;28;20602;-75
2022/12/27 04:36:20;;;;;;;9.20;0.40;;;;;;;1.45;57.79;101728.06;4909007;29;20032;-72
2022/12/27 04:38:45;;;;;;;7.00;0.40;;;;;;;1.83;57.25;101740.50;4892087;28;20075;-77
2022/12/27 04:55:17;;;;;;;4.30;0.45;;;;;;;1.19;57.29;101742.28;4893251;29;20256;-77
2022/12/27 04:57:43;;;;;;;0.90;0.22;;;;;;;0.80;57.53;101740.91;4901857;28;20183;-76
2022/12/27 05:02:53;;;;;;;5.53;0.40;;;;;;;0.99;56.55;101748.06;4910647;28;20070;-77
2022/12/27 05:05:20;;;;;;;3.83;0.17;;;;;;;0.62;57.10;101755.22;4912040;29;20350;-77
2022/12/27 05:15:59;;;;;;;2.58;0.40;;;;;;;0.62;56.36;101757.78;4913025;29;20038;-77
2022/12/27 05:18:25;;;;;;;6.97;0.40;;;;;;;0.97;55.62;101790.94;4913468;28;20497;-77
2022/12/27 05:20:51;;;;;;;6.63;0.45;;;;;;;1.36;54.35;101807.75;4912129;29;20071;-77
2022/12/27 05:26:01;;;;;;;4.90;0.52;;;;;;;0.61;57.14;101797.25;4911456;29;21243;-76
2022/12/27 05:28:26;;;;;;;0.73;0.10;;;;;;;0.95;55.93;101794.28;4912201;28;20036;-76
2022/12/27 05:30:52;;;;;;;6.30;0.20;;;;;;;0.76;57.26;101783.72;4909099;29;22473;-76
2022/12/27 05:33:17;;;;;;;4.50;0.10;;;;;;;1.11;56.09;101781.69;4894344;28;20426;-75
2022/12/27 05:35:43;;;;;;;8.18;1.23;;;;;;;0.82;56.14;101770.13;4888678;29;20652;-76
2022/12/27 05:38:08;;;;;;;4.78;0.13;;;;;;;0.87;55.69;101778.75;4907848;28;20051;-76
2022/12/27 05:40:34;;;;;;;7.72;0.32;;;;;;;0.65;56.75;101782.69;4914160;29;20126;-73
2022/12/27 05:43:01;;;;;;;3.97;0.40;;;;;;;1.00;55.76;101793.53;4895925;28;20052;-74
2022/12/27 05:45:28;;;;;;;2.97;0.30;;;;;;;0.89;55.76;101795.09;4895310;29;20296;-76
2022/12/27 05:47:54;;;;;;;7.07;0.20;;;;;;;1.02;55.48;101798.72;4921800;28;20066;-75
2022/12/27 05:50:20;;;;;;;1.88;0.30;;;;;;;0.62;56.31;101818.69;4915624;29;20040;-71
2022/12/27 05:52:48;;;;;;;3.40;0.82;;;;;;;1.14;55.50;101832.34;4895978;29;20052;-69
2022/12/27 05:55:14;;;;;;;6.50;0.55;;;;;;;0.97;55.83;101824.41;4877534;29;20051;-68
2022/12/27 05:57:39;;;;;;;4.18;0.15;;;;;;;1.00;56.33;101816.72;4897457;29;20052;-69
2022/12/27 06:00:06;;;;;;;0.73;0.13;;;;;;;0.48;58.42;101828.75;4909291;29;20574;-72
2022/12/27 06:02:38;;;;;;;7.30;0.40;;;;;;;0.64;58.21;101822.16;4904871;29;20064;-72
2022/12/27 06:05:04;;;;;;;8.52;0.85;;;;;;;0.78;58.04;101840.38;4902473;29;20031;-76
2022/12/27 06:07:30;;;;;;;2.88;0.17;;;;;;;1.06;56.79;101829.69;4899698;28;20068;-73
2022/12/27 06:09:55;;;;;;;17.52;0.45;;;;;;;1.23;56.73;101844.50;4889171;29;20475;-72
2022/12/27 06:12:21;;;;;;;2.10;0.30;;;;;;;0.87;57.54;101843.09;4887135;28;20056;-71
2022/12/27 06:14:46;;;;;;;4.68;0.35;;;;;;;1.16;57.16;101840.13;4888632;29;20337;-69
2022/12/27 06:17:12;;;;;;;6.50;0.40;;;;;;;0.65;58.21;101842.75;4890743;28;20040;-70
2022/12/27 06:19:37;;;;;;;2.20;0.47;;;;;;;0.99;57.31;101840.75;4887041;29;20047;-70
2022/12/27 06:22:04;;;;;;;7.00;0.25;;;;;;;0.44;58.06;101844.97;4891071;28;20509;-74
2022/12/27 06:24:29;;;;;;;4.75;0.20;;;;;;;0.96;56.95;101850.97;4888338;29;20046;-70
2022/12/27 06:26:54;;;;;;;3.30;0.60;;;;;;;0.19;59.60;101848.78;4889431;28;20376;-71
2022/12/27 06:29:20;;;;;;;3.47;0.50;;;;;;;0.64;58.17;101851.31;4886488;29;20793;-69
2022/12/27 06:31:46;;;;;;;1.45;0.35;;;;;;;0.85;57.04;101853.38;4886837;28;20395;-73
2022/12/27 06:34:11;;;;;;;5.30;0.63;;;;;;;0.95;56.96;101854.41;4888336;29;20024;-69
2022/12/27 06:36:36;;;;;;;5.25;0.50;;;;;;;0.87;57.40;101854.25;4886518;28;20110;-70
2022/12/27 06:39:02;;;;;;;6.22;0.45;;;;;;;0.71;57.83;101862.56;4889484;29;20077;-70
2022/12/27 06:41:28;;;;;;;3.40;0.57;;;;;;;0.50;58.82;101865.63;4890008;28;20059;-70
2022/12/27 06:43:56;;;;;;;8.05;0.57;;;;;;;0.49;58.62;101879.34;4890924;29;20209;-77
2022/12/27 06:46:24;;;;;;;6.55;0.40;;;;;;;0.81;58.00;101886.75;4891877;29;20523;-69
2022/12/27 06:48:51;;;;;;;5.80;0.88;;;;;;;1.15;56.56;101897.59;4888067;29;20044;-71
2022/12/27 06:51:19;;;;;;;6.45;0.88;;;;;;;1.41;55.91;101906.63;4889091;29;20066;-70
2022/12/27 06:53:46;;;;;;;10.40;0.52;;;;;;;1.23;56.38;101901.16;4904079;28;20114;-70
2022/12/27 06:56:17;;;;;;;2.33;1.10;;;;;;;1.09;57.50;101901.81;4908003;29;20027;-71
2022/12/27 06:58:44;;;;;;;3.95;0.68;;;;;;;1.27;57.45;101897.78;4906703;29;20078;-69
2022/12/27 07:01:19;;;;;;;7.50;0.70;;;;;;;0.67;59.02;101905.41;4906658;29;20151;-70
2022/12/27 07:04:03;;;;;;;16.27;0.95;;;;;;;0.84;58.31;101907.41;4905788;28;20070;-71
2022/12/27 07:06:30;;;;;;;17.67;1.58;;;;;;;1.27;56.87;101905.53;4906616;28;20035;-72
2022/12/27 07:08:58;;;;;;;11.43;1.10;;;;;;;1.24;56.25;101911.50;4875665;29;20040;-71
2022/12/27 07:11:24;;;;;;;4.78;0.77;;;;;;;1.19;56.38;101915.69;4891418;29;20842;-70
2022/12/27 07:13:52;;;;;;;8.65;0.68;;;;;;;0.96;56.81;101920.47;4887336;29;20044;-71
2022/12/27 07:16:22;;;;;;;2.15;0.43;;;;;;;0.81;57.22;101925.34;4888349;29;20105;-71
2022/12/27 07:18:48;;;;;;;6.43;0.77;;;;;;;0.81;56.78;101935.66;4888288;28;20110;-73
2022/12/27 07:21:17;;;;;;;8.32;0.95;;;;;;;0.93;56.37;101935.03;4891010;29;20347;-75
2022/12/27 07:23:44;;;;;;;6.07;0.75;;;;;;;0.14;58.82;101948.94;4886345;28;20131;-72
2022/12/27 07:26:12;;;;;;;4.80;0.50;;;;;;;0.26;58.22;101949.22;4890516;29;20044;-72
2022/12/27 07:28:38;;;;;;;8.00;1.05;;;;;;;0.53;57.45;101948.03;4887638;28;20048;-70
2022/12/27 07:31:16;;;;;;;10.82;0.60;;;;;;;0.01;58.87;101953.00;4889170;29;20042;-77
2022/12/27 07:33:42;;;;;;;5.97;0.50;;;;;;;0.54;57.15;101954.88;4905500;28;20066;-76
2022/12/27 07:36:13;;;;;;;15.75;0.55;;;;;;;0.47;57.48;101960.75;4916352;29;20031;-75
2022/12/27 07:38:38;;;;;;;7.43;1.88;;;;;;;-0.03;58.92;101970.91;4910145;29;20134;-76
2022/12/27 07:41:04;;;;;;;2.08;0.40;;;;;;;0.18;58.68;101988.47;4909733;29;20035;-71
2022/12/27 07:43:34;;;;;;;7.60;0.70;;;;;;;0.58;57.34;101995.28;4905910;28;20082;-70
2022/12/27 07:46:29;;;;;;;5.80;1.52;;;;;;;1.00;56.24;102002.06;4906545;29;20659;-70
2022/12/27 07:48:56;;;;;;;6.22;0.80;;;;;;;0.64;57.37;101992.84;4884111;29;20047;-70
2022/12/27 07:51:23;;;;;;;3.50;0.75;;;;;;;0.96;55.93;101991.69;4906008;29;20162;-69
2022/12/27 07:53:50;;;;;;;14.13;1.02;;;;;;;0.64;56.98;101992.84;4886738;28;20052;-69
2022/12/27 07:56:22;;;;;;;5.43;0.95;;;;;;;0.67;56.03;101992.88;4885759;29;20279;-71
2022/12/27 07:58:49;;;;;;;5.35;0.40;;;;;;;0.85;56.20;101991.50;4887318;28;20711;-71
2022/12/27 08:01:16;;;;;;;4.60;0.50;;;;;;;0.64;56.45;102003.13;4886692;29;20047;-72
2022/12/27 08:03:42;;;;;;;13.55;0.75;;;;;;;0.74;56.12;101999.00;4932194;28;20040;-71
2022/12/27 08:06:28;;;;;;;6.43;0.50;;;;;;;0.65;56.49;101994.56;4907469;29;20580;-70
2022/12/27 08:08:56;;;;;;;10.27;1.17;;;;;;;0.44;57.33;102001.88;4866326;29;20058;-71
2022/12/27 08:11:22;;;;;;;6.13;1.00;;;;;;;0.44;57.40;102010.44;4887080;29;20591;-71
2022/12/27 08:13:47;;;;;;;6.18;1.02;;;;;;;0.79;56.10;102011.97;4884626;29;20051;-71
2022/12/27 08:16:18;;;;;;;18.65;1.65;;;;;;;0.72;56.43;102020.41;4890672;29;20042;-70
2022/12/27 08:18:44;;;;;;;13.48;1.63;;;;;;;0.82;56.17;102020.63;4894157;29;20052;-71
2022/12/27 08:21:10;;;;;;;2.40;0.80;;;;;;;0.80;56.14;102027.44;4909390;29;20035;-72
2022/12/27 08:23:36;;;;;;;2.42;0.30;;;;;;;0.52;56.27;102023.44;4902853;28;20216;-70
2022/12/27 08:26:06;;;;;;;6.25;0.77;;;;;;;0.94;55.56;102032.84;4906250;29;20496;-69
2022/12/27 08:28:32;;;;;;;1.92;0.43;;;;;;;0.49;56.37;102028.53;4888968;28;20048;-70
2022/12/27 08:30:58;;;;;;;11.18;0.63;;;;;;;0.33;57.00;102032.50;4887842;29;20039;-70
2022/12/27 08:33:24;;;;;;;6.00;0.73;;;;;;;0.14;57.51;102028.66;4887192;28;20128;-71
2022/12/27 08:35:50;;;;;;;9.73;0.82;;;;;;;0.51;56.34;102024.31;4888769;29;20036;-70
2022/12/27 08:38:15;;;;;;;9.13;0.68;;;;;;;0.90;55.39;102024.22;4902077;28;20054;-70
2022/12/27 08:40:43;;;;;;;6.70;0.82;;;;;;;0.80;55.49;102024.00;4905370;29;20065;-69
2022/12/27 08:43:10;;;;;;;4.57;0.77;;;;;;;0.86;55.67;102019.00;4906000;28;20615;-69
2022/12/27 08:45:37;;;;;;;7.35;0.95;;;;;;;0.65;55.81;102025.44;4907464;29;20042;-70
2022/12/27 08:48:03;;;;;;;5.25;0.70;;;;;;;0.68;56.24;102030.66;4907269;28;20404;-70
2022/12/27 08:50:30;;;;;;;5.97;0.40;;;;;;;1.06;55.47;102027.94;4907523;29;20059;-69
2022/12/27 08:52:59;;;;;;;9.52;0.98;;;;;;;1.19;55.50;102033.28;4905440;28;20043;-70
2022/12/27 08:55:26;;;;;;;4.20;0.45;;;;;;;1.56;54.48;102028.81;4908614;29;20123;-70
2022/12/27 08:58:03;;;;;;;9.93;0.57;;;;;;;2.12;53.15;102024.47;4910613;28;20389;-69
2022/12/27 09:00:29;;;;;;;7.38;0.57;;;;;;;2.04;52.92;102033.84;4910540;29;20536;-69
2022/12/27 09:02:55;;;;;;;7.50;0.45;;;;;;;2.10;53.73;102043.34;4907331;28;20044;-70
2022/12/27 09:05:21;;;;;;;3.90;0.63;;;;;;;2.05;52.71;102045.00;4908316;29;20168;-69
2022/12/27 09:07:47;;;;;;;8.38;0.40;;;;;;;1.99;52.83;102044.91;4910219;28;20584;-69
2022/12/27 09:10:14;;;;;;;11.13;0.52;;;;;;;1.74;53.58;102044.56;4909550;29;20328;-69
2022/12/27 09:12:39;;;;;;;7.68;1.17;;;;;;;1.44;54.96;102050.06;4900565;28;20035;-70
2022/12/27 09:15:05;;;;;;;5.85;0.50;;;;;;;0.86;56.47;102049.88;4922791;28;20249;-69
2022/12/27 09:17:31;;;;;;;4.43;0.45;;;;;;;1.11;55.79;102052.06;4907934;28;20611;-69
2022/12/27 09:19:57;;;;;;;4.53;0.50;;;;;;;0.90;56.39;102051.66;4910188;29;20031;-70
2022/12/27 09:22:22;;;;;;;6.97;0.63;;;;;;;1.50;55.20;102060.47;4908367;28;20046;-69
2022/12/27 09:24:48;;;;;;;6.03;0.85;;;;;;;1.31;55.74;102054.13;4904824;29;20900;-69
2022/12/27 09:27:13;;;;;;;4.97;1.25;;;;;;;1.90;54.75;102061.13;4909407;28;20097;-70
2022/12/27 09:29:39;;;;;;;4.63;0.57;;;;;;;2.32;53.06;102063.44;4926231;28;20119;-69
2022/12/27 09:32:04;;;;;;;7.00;0.50;;;;;;;1.97;54.08;102067.25;4908734;28;20043;-69
2022/12/27 09:34:30;;;;;;;12.13;1.50;;;;;;;1.18;54.98;102067.63;4910269;29;20043;-70
2022/12/27 09:36:56;;;;;;;3.15;0.50;;;;;;;2.57;52.71;102066.34;4907647;28;20552;-69
2022/12/27 09:39:21;;;;;;;5.60;1.23;;;;;;;1.93;53.22;102062.03;4902285;29;20054;-69
2022/12/27 09:42:10;;;;;;;4.47;0.40;;;;;;;2.34;53.10;102071.22;4907730;28;20435;-69
2022/12/27 09:44:42;;;;;;;3.25;0.95;;;;;;;2.26;52.27;102072.81;4905039;29;20023;-70
2022/12/27 09:47:51;;;;;;;15.88;1.80;;;;;;;3.33;50.48;102081.84;4901377;28;20115;-70
2022/12/27 09:50:24;;;;;;;15.82;1.30;;;;;;;2.89;50.45;102073.59;4867091;29;20083;-68
2022/12/27 09:52:52;;;;;;;6.15;1.00;;;;;;;2.46;52.25;102083.41;4898774;28;20144;-69
2022/12/27 09:55:28;;;;;;;7.43;0.90;;;;;;;2.34;52.94;102084.13;4890146;29;20130;-71
2022/12/27 09:58:04;;;;;;;4.82;0.75;;;;;;;2.80;51.08;102089.88;4912876;28;20046;-69
2022/12/27 10:00:30;;;;;;;2.00;0.47;;;;;;;3.45;49.32;102086.28;4908768;29;20038;-69
2022/12/27 10:02:58;;;;;;;9.38;0.50;;;;;;;3.46;49.65;102090.59;4893049;28;21369;-70
2022/12/27 10:05:30;;;;;;;5.45;0.70;;;;;;;3.69;48.79;102089.91;4888527;29;20040;-70
2022/12/27 10:08:14;;;;;;;7.43;1.33;;;;;;;2.99;50.37;102090.94;4897488;29;20055;-69
2022/12/27 10:10:46;;;;;;;7.85;1.05;;;;;;;2.15;52.90;102093.28;4907336;29;20044;-69
2022/12/27 10:13:32;;;;;;;8.57;0.57;;;;;;;3.16;50.85;102084.25;4906766;28;20055;-70
2022/12/27 10:16:15;;;;;;;6.95;0.85;;;;;;;3.00;51.49;102084.06;4905180;29;20043;-70
2022/12/27 10:18:47;;;;;;;7.18;0.68;;;;;;;2.75;51.69;102094.94;4904537;28;20043;-70
2022/12/27 10:21:22;;;;;;;1.90;0.40;;;;;;;2.33;51.87;102093.56;4906176;29;20031;-70
2022/12/27 10:23:58;;;;;;;10.13;0.70;;;;;;;3.15;50.80;102099.72;4904822;28;20051;-71
2022/12/27 10:26:24;;;;;;;4.00;0.45;;;;;;;2.57;51.22;102102.47;4904988;29;20091;-68
2022/12/27 10:29:01;;;;;;;9.23;1.42;;;;;;;2.87;50.87;102111.47;4903481;29;20040;-68
2022/12/27 10:31:29;;;;;;;11.13;0.50;;;;;;;3.23;49.90;102110.16;4905038;28;20035;-69
2022/12/27 10:33:55;;;;;;;8.60;0.85;;;;;;;3.12;50.63;102115.19;4903744;29;20126;-70
2022/12/27 10:36:25;;;;;;;9.45;0.55;;;;;;;3.43;50.05;102120.72;4907902;29;20043;-69
2022/12/27 10:38:50;;;;;;;5.00;1.63;;;;;;;3.31;50.05;102119.72;4905478;29;20121;-68
2022/12/27 10:41:26;;;;;;;8.93;1.38;;;;;;;3.75;49.28;102121.00;4908361;29;20112;-72
2022/12/27 10:43:53;;;;;;;4.65;0.82;;;;;;;3.72;48.76;102115.81;4902429;29;20056;-69
2022/12/27 10:46:22;;;;;;;4.07;0.30;;;;;;;3.72;49.83;102121.84;4906291;29;20036;-69
2022/12/27 10:48:58;;;;;;;4.53;0.68;;;;;;;3.74;49.67;102124.47;4904520;28;20086;-70
2022/12/27 10:51:28;;;;;;;7.00;0.98;;;;;;;4.69;47.94;102125.06;4909540;29;20035;-69
2022/12/27 10:53:59;;;;;;;11.50;0.93;;;;;;;5.06;47.50;102125.25;4908322;29;20063;-70
2022/12/27 10:56:27;;;;;;;8.05;0.40;;;;;;;4.57;48.52;102125.00;4907894;29;20748;-68
2022/12/27 10:59:04;;;;;;;1.58;0.30;;;;;;;4.30;47.55;102120.56;4905038;29;20066;-69
2022/12/27 11:01:33;;;;;;;8.38;0.57;;;;;;;4.75;47.53;102119.91;4907764;28;20039;-67
2022/12/27 11:04:20;;;;;;;10.10;0.63;;;;;;;5.28;46.75;102122.69;4906921;29;20615;-68
2022/12/27 11:06:58;;;;;;;7.78;0.70;;;;;;;4.43;47.27;102118.03;4903364;28;20521;-69
2022/12/27 11:09:31;;;;;;;8.48;0.50;;;;;;;4.00;48.01;102117.75;4905586;29;20031;-71
2022/12/27 11:12:19;;;;;;;6.07;0.73;;;;;;;3.87;48.79;102117.66;4910031;28;20115;-69
2022/12/27 11:14:59;;;;;;;7.90;0.63;;;;;;;3.53;49.18;102125.97;4919443;29;20082;-69
2022/12/27 11:17:36;;;;;;;8.55;0.75;;;;;;;3.65;49.55;102126.94;4906989;28;20071;-70
2022/12/27 11:20:11;;;;;;;7.10;0.75;;;;;;;3.65;49.55;102124.34;4906510;29;20071;-71
2022/12/27 11:22:46;;;;;;;4.82;0.63;;;;;;;3.76;49.13;102130.47;4896797;28;20146;-71
2022/12/27 11:25:14;;;;;;;9.65;1.05;;;;;;;3.47;49.31;102145.72;4889799;29;20659;-70
2022/12/27 11:27:48;;;;;;;4.35;0.45;;;;;;;3.74;49.52;102146.00;4887588;28;20079;-69
2022/12/27 11:30:25;;;;;;;9.02;0.50;;;;;;;3.94;49.10;102143.59;4889677;29;20032;-69
2022/12/27 11:32:51;;;;;;;8.60;0.40;;;;;;;4.12;48.53;102152.31;4898459;28;20111;-69
2022/12/27 11:35:20;;;;;;;5.18;1.10;;;;;;;4.42;48.13;102157.72;4906933;29;20050;-70
2022/12/27 11:37:47;;;;;;;4.32;0.75;;;;;;;3.68;49.23;102161.47;4906474;28;20051;-71
2022/12/27 11:40:29;;;;;;;4.47;0.50;;;;;;;3.52;49.45;102154.41;4909769;29;20035;-70
2022/12/27 11:43:09;;;;;;;3.33;0.85;;;;;;;3.39;49.69;102158.59;4903790;28;20078;-71
2022/12/27 11:45:43;;;;;;;4.85;0.82;;;;;;;3.07;50.82;102165.91;4906293;29;20031;-70
2022/12/27 11:48:22;;;;;;;3.80;0.70;;;;;;;3.36;50.74;102166.31;4894330;28;20047;-70
2022/12/27 11:51:14;;;;;;;1.85;0.50;;;;;;;4.01;48.43;102166.06;4885026;29;20071;-70
2022/12/27 11:53:42;;;;;;;8.55;1.15;;;;;;;3.99;49.78;102160.00;4903427;28;20205;-70
2022/12/27 11:56:27;;;;;;;11.43;1.52;;;;;;;3.00;50.72;102161.53;4907036;29;20023;-71
2022/12/27 11:59:03;;;;;;;8.95;1.02;;;;;;;3.44;50.74;102151.72;4886976;29;20138;-71
2022/12/27 12:01:31;;;;;;;7.28;1.45;;;;;;;3.51;50.33;102150.06;4888986;29;20043;-71
2022/12/27 12:04:07;;;;;;;4.53;1.10;;;;;;;3.13;51.46;102133.28;4886358;29;20052;-70
2022/12/27 12:06:49;;;;;;;13.25;1.77;;;;;;;3.06;51.46;102138.38;4859914;29;20036;-69
2022/12/27 12:09:17;;;;;;;4.30;1.33;;;;;;;3.45;50.49;102126.75;4881941;29;20044;-71
2022/12/27 12:12:17;;;;;;;13.35;2.13;;;;;;;3.47;50.38;102125.94;4882368;29;20425;-69
2022/12/27 12:14:54;;;;;;;9.70;1.33;;;;;;;3.37;50.53;102124.09;4881523;29;20043;-70
2022/12/27 12:17:32;;;;;;;13.27;2.85;;;;;;;3.50;50.20;102115.63;4881701;29;20730;-71
2022/12/27 12:20:16;;;;;;;9.80;1.48;;;;;;;3.49;50.76;102116.47;4883695;29;20044;-69
2022/12/27 12:22:41;;;;;;;15.10;1.85;;;;;;;3.67;50.15;102131.28;4893441;28;20056;-69
2022/12/27 12:25:36;;;;;;;10.80;0.93;;;;;;;3.71;50.62;102125.28;4901789;29;20098;-69
2022/12/27 12:28:28;;;;;;;4.75;0.98;;;;;;;3.07;51.76;102130.66;4901895;28;20344;-70
2022/12/27 12:31:19;;;;;;;3.33;0.40;;;;;;;3.01;51.48;102125.41;4901135;29;20078;-71
2022/12/27 12:34:13;;;;;;;12.98;1.50;;;;;;;3.70;50.30;102120.09;4903670;28;20319;-71
2022/12/27 12:37:03;;;;;;;7.32;0.98;;;;;;;3.27;50.92;102125.69;4903080;28;20443;-69
2022/12/27 12:40:01;;;;;;;4.82;1.02;;;;;;;3.16;51.19;102132.47;4906377;29;20381;-70
2022/12/27 12:43:04;;;;;;;12.88;1.45;;;;;;;3.25;51.65;102129.09;4904160;28;20146;-69
2022/12/27 12:45:29;;;;;;;;;;;;;;;3.45;50.91;102126.75;4909489;29;20087;-70
2022/12/27 12:48:14;;;;;;;6.95;0.70;;;;;;;3.51;51.01;102127.66;4906145;28;20178;-71
2022/12/27 12:51:11;;;;;;;3.20;0.38;;;;;;;3.51;50.78;102127.66;4901968;29;20031;-69
2022/12/27 12:53:58;;;;;;;4.68;0.40;;;;;;;3.49;50.51;102129.41;4889710;28;20875;-70
2022/12/27 12:56:48;;;;;;;6.35;0.73;;;;;;;3.10;51.44;102122.91;4907326;29;20792;-70
2022/12/27 12:59:57;;;;;;;6.20;0.95;;;;;;;3.64;50.35;102123.50;4909806;29;20048;-68
2022/12/27 13:02:44;;;;;;;7.18;1.15;;;;;;;3.34;50.54;102118.91;4907745;28;20082;-69
2022/12/27 13:05:22;;;;;;;6.43;0.93;;;;;;;3.42;50.65;102112.09;4905493;29;20042;-69
2022/12/27 13:07:58;;;;;;;5.85;0.70;;;;;;;3.64;50.52;102112.28;4922810;28;20047;-69
2022/12/27 13:10:55;;;;;;;4.15;0.75;;;;;;;3.61;49.53;102100.22;4909674;29;20043;-69
2022/12/27 13:13:33;;;;;;;4.05;0.85;;;;;;;3.63;50.02;102089.84;4898252;28;20052;-69
2022/12/27 13:16:30;;;;;;;7.22;1.23;;;;;;;3.83;49.85;102093.50;4911427;29;20058;-69
2022/12/27 13:19:29;;;;;;;10.55;0.68;;;;;;;3.68;50.26;102089.06;4910634;28;20178;-69
2022/12/27 13:22:07;;;;;;;6.60;0.77;;;;;;;3.75;50.34;102085.66;4901503;28;20062;-69
2022/12/27 13:24:44;;;;;;;7.57;0.60;;;;;;;3.68;50.44;102072.69;4910891;29;20044;-69
2022/12/27 13:27:28;;;;;;;6.05;0.75;;;;;;;3.78;50.07;102074.47;4911622;28;20091;-69
2022/12/27 13:29:54;;;;;;;6.07;1.00;;;;;;;3.39;50.84;102074.16;4909597;29;20055;-69
2022/12/27 13:32:45;;;;;;;5.35;1.08;;;;;;;3.68;50.63;102070.94;4909559;28;20250;-69
2022/12/27 13:35:28;;;;;;;10.23;0.65;;;;;;;3.84;50.42;102074.53;4910104;29;20114;-69